sensor_id;sensor_type;location;lat;lon;timestamp;pressure;altitude;pressure_sealevel;temperature;humidity
63111;BME280;49201;53.426;10.300;2023-03-25T00:00:54;100064.91;;;9.11;100.00
63111;BME280;49201;53.426;10.300;2023-03-25T00:03:22;100069.13;;;9.09;100.00
63111;BME280;49201;53.426;10.300;2023-03-25T00:05:48;100067.38;;;9.05;100.00
63111;BME280;49201;53.426;10.300;2023-03-25T00:08:14;100066.47;;;9.03;100.00
63111;BME280;49201;53.426;10.300;2023-03-25T00:10:39;100063.09;;;9.03;100.00
63111;BME280;49201;53.426;10.300;2023-03-25T00:13:05;100061.34;;;9.02;100.00
63111;BME280;49201;53.426;10.300;2023-03-25T00:15:32;100060.50;;;9.00;100.00
63111;BME280;49201;53.426;10.300;2023-03-25T00:17:59;100058.72;;;8.96;100.00
63111;BME280;49201;53.426;10.300;2023-03-25T00:20:26;100058.69;;;8.93;100.00
63111;BME280;49201;53.426;10.300;2023-03-25T00:22:52;100062.94;;;8.92;100.00
63111;BME280;49201;53.426;10.300;2023-03-25T00:25:18;100059.50;;;8.90;100.00
63111;BME280;49201;53.426;10.300;2023-03-25T00:27:46;100054.38;;;8.87;100.00
63111;BME280;49201;53.426;10.300;2023-03-25T00:30:17;100044.97;;;8.85;100.00
63111;BME280;49201;53.426;10.300;2023-03-25T00:32:43;100050.09;;;8.85;100.00
63111;BME280;49201;53.426;10.300;2023-03-25T00:35:18;100038.16;;;8.85;100.00
63111;BME280;49201;53.426;10.300;2023-03-25T00:37:45;100039.81;;;8.82;100.00
63111;BME280;49201;53.426;10.300;2023-03-25T00:40:12;100050.09;;;8.85;100.00
63111;BME280;49201;53.426;10.300;2023-03-25T00:42:39;100040.75;;;8.88;100.00
63111;BME280;49201;53.426;10.300;2023-03-25T00:45:10;100044.13;;;8.84;100.00
63111;BME280;49201;53.426;10.300;2023-03-25T00:47:36;100034.75;;;8.83;100.00
63111;BME280;49201;53.426;10.300;2023-03-25T00:50:02;100035.56;;;8.81;100.00
63111;BME280;49201;53.426;10.300;2023-03-25T00:52:28;100037.25;;;8.80;100.00
63111;BME280;49201;53.426;10.300;2023-03-25T00:54:54;100036.34;;;8.77;100.00
63111;BME280;49201;53.426;10.300;2023-03-25T00:57:19;100035.56;;;8.81;100.00
63111;BME280;49201;53.426;10.300;2023-03-25T00:59:45;100044.06;;;8.81;100.00
63111;BME280;49201;53.426;10.300;2023-03-25T01:02:10;100049.25;;;8.86;100.00
63111;BME280;49201;53.426;10.300;2023-03-25T01:04:36;100042.47;;;8.89;100.00
63111;BME280;49201;53.426;10.300;2023-03-25T01:07:03;100043.38;;;8.93;100.00
63111;BME280;49201;53.426;10.300;2023-03-25T01:09:29;100046.78;;;8.93;100.00
63111;BME280;49201;53.426;10.300;2023-03-25T01:11:55;100040.81;;;8.93;100.00
63111;BME280;49201;53.426;10.300;2023-03-25T01:14:21;100034.06;;;8.96;100.00
63111;BME280;49201;53.426;10.300;2023-03-25T01:16:48;100032.38;;;8.98;100.00
63111;BME280;49201;53.426;10.300;2023-03-25T01:19:14;100034.97;;;9.00;100.00
63111;BME280;49201;53.426;10.300;2023-03-25T01:21:40;100035.81;;;9.02;100.00
63111;BME280;49201;53.426;10.300;2023-03-25T01:24:07;100037.56;;;9.03;100.00
63111;BME280;49201;53.426;10.300;2023-03-25T01:26:35;100033.31;;;9.05;100.00
63111;BME280;49201;53.426;10.300;2023-03-25T01:29:03;100036.78;;;9.10;100.00
63111;BME280;49201;53.426;10.300;2023-03-25T01:31:31;100028.28;;;9.11;100.00
63111;BME280;49201;53.426;10.300;2023-03-25T01:33:58;100029.16;;;9.13;100.00
63111;BME280;49201;53.426;10.300;2023-03-25T01:36:24;100023.19;;;9.12;100.00
63111;BME280;49201;53.426;10.300;2023-03-25T01:38:54;100024.91;;;9.12;100.00
63111;BME280;49201;53.426;10.300;2023-03-25T01:41:20;100020.63;;;9.12;100.00
63111;BME280;49201;53.426;10.300;2023-03-25T01:44:06;100019.78;;;9.10;100.00
63111;BME280;49201;53.426;10.300;2023-03-25T01:46:32;100022.31;;;9.10;100.00
63111;BME280;49201;53.426;10.300;2023-03-25T01:48:59;100018.97;;;9.14;100.00
63111;BME280;49201;53.426;10.300;2023-03-25T01:51:29;100023.25;;;9.17;100.00
63111;BME280;49201;53.426;10.300;2023-03-25T01:53:56;100018.13;;;9.15;100.00
63111;BME280;49201;53.426;10.300;2023-03-25T01:56:27;100015.59;;;9.17;100.00
63111;BME280;49201;53.426;10.300;2023-03-25T01:58:57;100012.16;;;9.16;100.00
63111;BME280;49201;53.426;10.300;2023-03-25T02:01:23;100007.09;;;9.18;100.00
63111;BME280;49201;53.426;10.300;2023-03-25T02:03:53;100009.72;;;9.25;100.00
63111;BME280;49201;53.426;10.300;2023-03-25T02:06:32;100002.06;;;9.25;100.00
63111;BME280;49201;53.426;10.300;2023-03-25T02:09:01;99992.72;;;9.26;100.00
63111;BME280;49201;53.426;10.300;2023-03-25T02:11:29;99996.16;;;9.29;100.00
63111;BME280;49201;53.426;10.300;2023-03-25T02:14:00;99995.31;;;9.32;100.00
63111;BME280;49201;53.426;10.300;2023-03-25T02:16:51;99992.72;;;9.29;100.00
63111;BME280;49201;53.426;10.300;2023-03-25T02:27:17;99984.19;;;9.25;100.00
63111;BME280;49201;53.426;10.300;2023-03-25T02:30:02;99981.66;;;9.28;100.00
63111;BME280;49201;53.426;10.300;2023-03-25T02:40:33;99979.06;;;9.25;100.00
63111;BME280;49201;53.426;10.300;2023-03-25T02:43:19;99966.28;;;9.24;100.00
63111;BME280;49201;53.426;10.300;2023-03-25T02:45:50;99964.59;;;9.27;100.00
63111;BME280;49201;53.426;10.300;2023-03-25T02:48:28;99962.06;;;9.27;100.00
63111;BME280;49201;53.426;10.300;2023-03-25T02:51:00;99969.69;;;9.24;100.00
63111;BME280;49201;53.426;10.300;2023-03-25T02:53:30;99971.41;;;9.25;100.00
63111;BME280;49201;53.426;10.300;2023-03-25T02:56:01;99963.69;;;9.22;100.00
63111;BME280;49201;53.426;10.300;2023-03-25T02:58:29;99970.53;;;9.22;100.00
63111;BME280;49201;53.426;10.300;2023-03-25T03:00:55;99967.09;;;9.21;100.00
63111;BME280;49201;53.426;10.300;2023-03-25T03:03:24;99961.16;;;9.22;100.00
63111;BME280;49201;53.426;10.300;2023-03-25T03:05:52;99971.41;;;9.25;100.00
63111;BME280;49201;53.426;10.300;2023-03-25T03:11:01;99962.16;;;9.36;100.00
63111;BME280;49201;53.426;10.300;2023-03-25T03:16:16;99958.78;;;9.40;100.00
63111;BME280;49201;53.426;10.300;2023-03-25T03:21:39;99954.50;;;9.35;100.00
63111;BME280;49201;53.426;10.300;2023-03-25T03:24:14;99951.09;;;9.36;100.00
63111;BME280;49201;53.426;10.300;2023-03-25T03:26:52;99952.78;;;9.35;100.00
63111;BME280;49201;53.426;10.300;2023-03-25T03:29:47;99952.78;;;9.35;100.00
63111;BME280;49201;53.426;10.300;2023-03-25T03:35:26;99955.31;;;9.35;100.00
63111;BME280;49201;53.426;10.300;2023-03-25T03:38:00;99953.59;;;9.33;100.00
63111;BME280;49201;53.426;10.300;2023-03-25T03:40:28;99956.13;;;9.28;100.00
63111;BME280;49201;53.426;10.300;2023-03-25T03:42:58;99948.41;;;9.25;100.00
63111;BME280;49201;53.426;10.300;2023-03-25T03:45:39;99961.19;;;9.25;100.00
63111;BME280;49201;53.426;10.300;2023-03-25T03:48:15;99951.81;;;9.23;100.00
63111;BME280;49201;53.426;10.300;2023-03-25T03:50:49;99949.22;;;9.20;100.00
63111;BME280;49201;53.426;10.300;2023-03-25T03:53:25;99961.13;;;9.19;100.00
63111;BME280;49201;53.426;10.300;2023-03-25T03:56:24;99956.00;;;9.18;100.00
63111;BME280;49201;53.426;10.300;2023-03-25T03:58:55;99964.53;;;9.18;100.00
63111;BME280;49201;53.426;10.300;2023-03-25T04:01:42;99954.31;;;9.18;100.00
63111;BME280;49201;53.426;10.300;2023-03-25T04:04:19;99952.56;;;9.16;100.00
63111;BME280;49201;53.426;10.300;2023-03-25T04:09:29;99951.69;;;9.12;100.00
63111;BME280;49201;53.426;10.300;2023-03-25T04:12:02;99950.81;;;9.10;100.00
63111;BME280;49201;53.426;10.300;2023-03-25T04:14:30;99951.69;;;9.12;100.00
63111;BME280;49201;53.426;10.300;2023-03-25T04:16:57;99949.91;;;9.05;100.00
63111;BME280;49201;53.426;10.300;2023-03-25T04:19:24;99952.38;;;8.99;100.00
63111;BME280;49201;53.426;10.300;2023-03-25T04:21:51;99947.22;;;8.93;100.00
63111;BME280;49201;53.426;10.300;2023-03-25T04:24:18;99950.56;;;8.89;100.00
63111;BME280;49201;53.426;10.300;2023-03-25T04:26:44;99950.56;;;8.86;100.00
63111;BME280;49201;53.426;10.300;2023-03-25T04:29:10;99949.72;;;8.90;100.00
63111;BME280;49201;53.426;10.300;2023-03-25T04:31:38;99957.41;;;8.92;100.00
63111;BME280;49201;53.426;10.300;2023-03-25T04:34:11;99952.31;;;8.93;100.00
63111;BME280;49201;53.426;10.300;2023-03-25T04:36:40;99960.84;;;8.94;100.00
63111;BME280;49201;53.426;10.300;2023-03-25T04:39:08;99960.03;;;8.96;100.00
63111;BME280;49201;53.426;10.300;2023-03-25T04:41:36;99963.44;;;8.98;100.00
63111;BME280;49201;53.426;10.300;2023-03-25T04:44:01;99960.88;;;8.98;100.00
63111;BME280;49201;53.426;10.300;2023-03-25T04:46:27;99955.88;;;9.06;100.00
63111;BME280;49201;53.426;10.300;2023-03-25T04:48:52;99952.50;;;9.07;100.00
63111;BME280;49201;53.426;10.300;2023-03-25T04:51:21;99960.94;;;9.04;100.00
63111;BME280;49201;53.426;10.300;2023-03-25T04:53:47;99963.50;;;9.03;100.00
63111;BME280;49201;53.426;10.300;2023-03-25T04:56:15;99962.66;;;9.02;100.00
63111;BME280;49201;53.426;10.300;2023-03-25T04:58:42;99965.25;;;9.05;100.00
63111;BME280;49201;53.426;10.300;2023-03-25T05:01:18;99954.16;;;9.05;100.00
63111;BME280;49201;53.426;10.300;2023-03-25T05:03:44;99957.59;;;9.07;100.00
63111;BME280;49201;53.426;10.300;2023-03-25T05:06:16;99955.88;;;9.07;100.00
63111;BME280;49201;53.426;10.300;2023-03-25T05:08:42;99955.03;;;9.08;100.00
63111;BME280;49201;53.426;10.300;2023-03-25T05:11:07;99953.34;;;9.07;100.00
63111;BME280;49201;53.426;10.300;2023-03-25T05:13:33;99956.78;;;9.09;100.00
63111;BME280;49201;53.426;10.300;2023-03-25T05:15:58;99951.66;;;9.09;100.00
63111;BME280;49201;53.426;10.300;2023-03-25T05:18:23;99963.63;;;9.15;100.00
63111;BME280;49201;53.426;10.300;2023-03-25T05:20:49;99962.78;;;9.16;100.00
63111;BME280;49201;53.426;10.300;2023-03-25T05:23:15;99964.53;;;9.20;100.00
63111;BME280;49201;53.426;10.300;2023-03-25T05:25:46;99967.09;;;9.18;100.00
63111;BME280;49201;53.426;10.300;2023-03-25T05:28:13;99960.34;;;9.23;100.00
63111;BME280;49201;53.426;10.300;2023-03-25T05:30:40;99962.03;;;9.23;100.00
63111;BME280;49201;53.426;10.300;2023-03-25T05:33:08;99962.88;;;9.23;100.00
63111;BME280;49201;53.426;10.300;2023-03-25T05:35:38;99959.50;;;9.24;100.00
63111;BME280;49201;53.426;10.300;2023-03-25T05:38:04;99966.31;;;9.25;100.00
63111;BME280;49201;53.426;10.300;2023-03-25T05:40:30;99966.28;;;9.24;100.00
63111;BME280;49201;53.426;10.300;2023-03-25T05:42:57;99972.22;;;9.21;100.00
63111;BME280;49201;53.426;10.300;2023-03-25T05:45:22;99978.16;;;9.19;100.00
63111;BME280;49201;53.426;10.300;2023-03-25T05:47:48;99982.41;;;9.17;100.00
63111;BME280;49201;53.426;10.300;2023-03-25T05:50:13;99973.84;;;9.12;100.00
63111;BME280;49201;53.426;10.300;2023-03-25T05:52:40;99985.69;;;9.10;100.00
63111;BME280;49201;53.426;10.300;2023-03-25T05:55:08;99985.69;;;9.08;100.00
63111;BME280;49201;53.426;10.300;2023-03-25T05:57:34;99983.13;;;9.07;100.00
63111;BME280;49201;53.426;10.300;2023-03-25T06:00:01;99987.34;;;9.05;100.00
63111;BME280;49201;53.426;10.300;2023-03-25T06:02:37;99983.91;;;9.01;100.00
63111;BME280;49201;53.426;10.300;2023-03-25T06:05:05;99985.59;;;8.98;100.00
63111;BME280;49201;53.426;10.300;2023-03-25T06:07:30;99988.94;;;8.97;100.00
63111;BME280;49201;53.426;10.300;2023-03-25T06:09:56;99988.09;;;8.95;100.00
63111;BME280;49201;53.426;10.300;2023-03-25T06:12:22;99986.34;;;8.92;100.00
63111;BME280;49201;53.426;10.300;2023-03-25T06:14:48;99993.13;;;8.90;100.00
63111;BME280;49201;53.426;10.300;2023-03-25T06:17:19;99987.19;;;8.90;100.00
63111;BME280;49201;53.426;10.300;2023-03-25T06:19:47;99983.84;;;8.95;100.00
63111;BME280;49201;53.426;10.300;2023-03-25T06:22:12;99986.41;;;8.98;100.00
63111;BME280;49201;53.426;10.300;2023-03-25T06:24:39;99994.09;;;9.00;100.00
63111;BME280;49201;53.426;10.300;2023-03-25T06:27:09;99989.97;;;9.09;100.00
63111;BME280;49201;53.426;10.300;2023-03-25T06:29:36;99995.06;;;9.11;100.00
63111;BME280;49201;53.426;10.300;2023-03-25T06:32:03;99989.13;;;9.13;100.00
63111;BME280;49201;53.426;10.300;2023-03-25T06:34:29;99992.56;;;9.14;100.00
63111;BME280;49201;53.426;10.300;2023-03-25T06:36:57;99998.53;;;9.16;100.00
63111;BME280;49201;53.426;10.300;2023-03-25T06:39:22;99995.13;;;9.15;100.00
63111;BME280;49201;53.426;10.300;2023-03-25T06:41:48;99996.03;;;9.19;100.00
63111;BME280;49201;53.426;10.300;2023-03-25T06:44:26;99997.72;;;9.20;100.00
63111;BME280;49201;53.426;10.300;2023-03-25T06:47:11;100006.31;;;9.26;100.00
63111;BME280;49201;53.426;10.300;2023-03-25T06:49:47;100001.38;;;9.40;100.00
63111;BME280;49201;53.426;10.300;2023-03-25T06:52:13;99994.53;;;9.40;100.00
63111;BME280;49201;53.426;10.300;2023-03-25T06:54:38;100003.91;;;9.38;100.00
63111;BME280;49201;53.426;10.300;2023-03-25T06:57:04;99997.09;;;9.39;100.00
63111;BME280;49201;53.426;10.300;2023-03-25T06:59:30;99989.41;;;9.39;100.00
63111;BME280;49201;53.426;10.300;2023-03-25T07:01:56;99998.84;;;9.44;100.00
63111;BME280;49201;53.426;10.300;2023-03-25T07:04:22;100000.63;;;9.53;100.00
63111;BME280;49201;53.426;10.300;2023-03-25T07:06:47;99987.19;;;9.73;100.00
63111;BME280;49201;53.426;10.300;2023-03-25T07:09:13;99993.94;;;9.64;100.00
63111;BME280;49201;53.426;10.300;2023-03-25T07:11:38;99993.03;;;9.57;100.00
63111;BME280;49201;53.426;10.300;2023-03-25T07:14:04;99996.53;;;9.70;100.00
63111;BME280;49201;53.426;10.300;2023-03-25T07:16:29;99991.78;;;10.07;100.00
63111;BME280;49201;53.426;10.300;2023-03-25T07:18:55;99993.59;;;10.22;100.00
63111;BME280;49201;53.426;10.300;2023-03-25T07:21:21;100005.75;;;10.50;100.00
63111;BME280;49201;53.426;10.300;2023-03-25T07:23:47;99993.91;;;10.71;100.00
63111;BME280;49201;53.426;10.300;2023-03-25T07:26:13;99992.25;;;10.82;100.00
63111;BME280;49201;53.426;10.300;2023-03-25T07:28:39;100000.53;;;10.39;100.00
63111;BME280;49201;53.426;10.300;2023-03-25T07:31:10;100001.34;;;10.34;100.00
63111;BME280;49201;53.426;10.300;2023-03-25T07:33:36;100015.84;;;10.30;100.00
63111;BME280;49201;53.426;10.300;2023-03-25T07:36:03;100009.00;;;10.32;100.00
63111;BME280;49201;53.426;10.300;2023-03-25T07:38:28;100014.44;;;10.83;100.00
63111;BME280;49201;53.426;10.300;2023-03-25T07:40:54;100010.91;;;10.60;100.00
63111;BME280;49201;53.426;10.300;2023-03-25T07:43:20;100016.75;;;10.43;100.00
63111;BME280;49201;53.426;10.300;2023-03-25T07:45:53;100015.84;;;10.35;100.00
63111;BME280;49201;53.426;10.300;2023-03-25T07:48:19;100020.97;;;10.32;100.00
63111;BME280;49201;53.426;10.300;2023-03-25T07:50:50;100021.84;;;10.35;100.00
63111;BME280;49201;53.426;10.300;2023-03-25T07:53:15;100019.34;;;10.44;100.00
63111;BME280;49201;53.426;10.300;2023-03-25T07:55:41;100026.19;;;10.48;100.00
63111;BME280;49201;53.426;10.300;2023-03-25T07:58:06;100027.94;;;10.52;100.00
63111;BME280;49201;53.426;10.300;2023-03-25T08:00:32;100013.63;;;10.93;100.00
63111;BME280;49201;53.426;10.300;2023-03-25T08:02:57;100016.09;;;10.77;100.00
63111;BME280;49201;53.426;10.300;2023-03-25T08:05:23;100016.88;;;10.65;100.00
63111;BME280;49201;53.426;10.300;2023-03-25T08:07:52;100009.38;;;11.00;100.00
63111;BME280;49201;53.426;10.300;2023-03-25T08:10:18;100009.50;;;11.31;100.00
63111;BME280;49201;53.426;10.300;2023-03-25T08:12:44;100021.38;;;11.13;100.00
63111;BME280;49201;53.426;10.300;2023-03-25T08:15:10;100015.59;;;11.60;100.00
63111;BME280;49201;53.426;10.300;2023-03-25T08:17:36;100004.44;;;11.54;100.00
63111;BME280;49201;53.426;10.300;2023-03-25T08:20:03;100029.22;;;11.50;100.00
63111;BME280;49201;53.426;10.300;2023-03-25T08:22:30;100016.47;;;11.82;100.00
63111;BME280;49201;53.426;10.300;2023-03-25T08:24:55;100009.56;;;11.48;100.00
63111;BME280;49201;53.426;10.300;2023-03-25T08:27:21;100013.88;;;11.62;100.00
63111;BME280;49201;53.426;10.300;2023-03-25T08:29:47;100021.59;;;11.76;100.00
63111;BME280;49201;53.426;10.300;2023-03-25T08:32:23;100019.78;;;11.52;100.00
63111;BME280;49201;53.426;10.300;2023-03-25T08:34:49;100035.09;;;11.21;100.00
63111;BME280;49201;53.426;10.300;2023-03-25T08:37:14;100030.72;;;10.99;100.00
63111;BME280;49201;53.426;10.300;2023-03-25T08:39:41;100027.34;;;11.09;100.00
63111;BME280;49201;53.426;10.300;2023-03-25T08:42:10;100013.81;;;11.41;100.00
63111;BME280;49201;53.426;10.300;2023-03-25T08:44:36;100000.22;;;11.69;100.00
63111;BME280;49201;53.426;10.300;2023-03-25T08:47:02;99989.97;;;11.86;100.00
63111;BME280;49201;53.426;10.300;2023-03-25T08:49:28;99955.72;;;12.23;100.00
63111;BME280;49201;53.426;10.300;2023-03-25T08:51:53;99953.16;;;12.27;100.00
63111;BME280;49201;53.426;10.300;2023-03-25T08:54:21;99989.09;;;12.03;100.00
63111;BME280;49201;53.426;10.300;2023-03-25T08:56:47;99966.88;;;11.92;100.00
63111;BME280;49201;53.426;10.300;2023-03-25T08:59:12;99953.19;;;12.03;100.00
63111;BME280;49201;53.426;10.300;2023-03-25T09:01:38;99925.75;;;12.34;100.00
63111;BME280;49201;53.426;10.300;2023-03-25T09:04:04;99961.63;;;12.53;100.00
63111;BME280;49201;53.426;10.300;2023-03-25T09:06:29;99979.69;;;12.10;100.00
63111;BME280;49201;53.426;10.300;2023-03-25T09:08:55;99977.13;;;12.14;100.00
63111;BME280;49201;53.426;10.300;2023-03-25T09:11:21;99992.53;;;11.98;100.00
63111;BME280;49201;53.426;10.300;2023-03-25T09:13:46;100019.88;;;11.69;100.00
63111;BME280;49201;53.426;10.300;2023-03-25T09:16:12;100035.19;;;11.55;100.00
63111;BME280;49201;53.426;10.300;2023-03-25T09:18:37;100009.53;;;11.37;100.00
63111;BME280;49201;53.426;10.300;2023-03-25T09:21:03;100008.69;;;11.49;100.00
63111;BME280;49201;53.426;10.300;2023-03-25T09:23:29;100014.66;;;11.46;100.00
63111;BME280;49201;53.426;10.300;2023-03-25T09:25:58;100001.84;;;11.39;100.00
63111;BME280;49201;53.426;10.300;2023-03-25T09:28:23;100030.81;;;11.23;100.00
63111;BME280;49201;53.426;10.300;2023-03-25T09:30:49;100028.28;;;11.26;100.00
63111;BME280;49201;53.426;10.300;2023-03-25T09:33:14;100028.97;;;10.93;100.00
63111;BME280;49201;53.426;10.300;2023-03-25T09:35:40;100022.09;;;10.82;100.00
63111;BME280;49201;53.426;10.300;2023-03-25T09:38:06;100015.31;;;10.87;100.00
63111;BME280;49201;53.426;10.300;2023-03-25T09:40:33;100017.00;;;10.85;100.00
63111;BME280;49201;53.426;10.300;2023-03-25T09:45:46;100043.28;;;10.52;100.00
63111;BME280;49201;53.426;10.300;2023-03-25T09:50:47;100040.97;;;9.81;100.00
63111;BME280;49201;53.426;10.300;2023-03-25T09:53:26;100041.38;;;9.39;100.00
63111;BME280;49201;53.426;10.300;2023-03-25T09:55:53;100036.97;;;9.26;100.00
63111;BME280;49201;53.426;10.300;2023-03-25T09:58:39;100043.66;;;9.15;100.00
63111;BME280;49201;53.426;10.300;2023-03-25T10:03:58;100049.97;;;8.76;100.00
63111;BME280;49201;53.426;10.300;2023-03-25T10:06:29;100038.03;;;8.76;100.00
63111;BME280;49201;53.426;10.300;2023-03-25T10:12:04;100055.13;;;8.82;100.00
63111;BME280;49201;53.426;10.300;2023-03-25T10:14:57;100050.94;;;8.87;100.00
63111;BME280;49201;53.426;10.300;2023-03-25T10:17:59;100052.84;;;9.01;100.00
63111;BME280;49201;53.426;10.300;2023-03-25T10:25:58;99800.72;;;15.05;100.00
63111;BME280;49201;53.426;10.300;2023-03-25T10:28:37;100025.88;;;11.84;100.00
63111;BME280;49201;53.426;10.300;2023-03-25T10:31:04;100063.84;;;10.66;100.00
63111;BME280;49201;53.426;10.300;2023-03-25T10:33:39;100030.88;;;11.36;100.00
63111;BME280;49201;53.426;10.300;2023-03-25T10:36:09;99522.97;;;18.05;100.00
63111;BME280;49201;53.426;10.300;2023-03-25T10:38:37;99399.59;;;18.01;100.00
63111;BME280;49201;53.426;10.300;2023-03-25T10:41:23;99331.41;;;18.01;96.24
63111;BME280;49201;53.426;10.300;2023-03-25T10:43:50;99230.88;;;18.78;86.36
63111;BME280;49201;53.426;10.300;2023-03-25T10:49:13;99664.22;;;13.81;100.00
63111;BME280;49201;53.426;10.300;2023-03-25T10:51:39;99840.75;;;12.93;100.00
63111;BME280;49201;53.426;10.300;2023-03-25T10:54:05;99989.00;;;12.69;100.00
63111;BME280;49201;53.426;10.300;2023-03-25T10:56:34;99942.81;;;12.57;100.00
63111;BME280;49201;53.426;10.300;2023-03-25T10:59:06;100087.41;;;11.75;100.00
63111;BME280;49201;53.426;10.300;2023-03-25T11:01:41;100113.91;;;11.74;100.00
63111;BME280;49201;53.426;10.300;2023-03-25T11:04:10;99981.94;;;13.27;100.00
63111;BME280;49201;53.426;10.300;2023-03-25T11:06:39;99570.00;;;17.05;100.00
63111;BME280;49201;53.426;10.300;2023-03-25T11:11:40;99321.06;;;17.50;93.60
63111;BME280;49201;53.426;10.300;2023-03-25T11:14:06;99560.50;;;14.33;100.00
63111;BME280;49201;53.426;10.300;2023-03-25T11:16:33;99616.97;;;16.56;100.00
63111;BME280;49201;53.426;10.300;2023-03-25T11:19:00;99567.22;;;16.47;100.00
63111;BME280;49201;53.426;10.300;2023-03-25T11:21:31;99684.44;;;14.65;100.00
63111;BME280;49201;53.426;10.300;2023-03-25T11:23:57;99920.38;;;12.99;100.00
63111;BME280;49201;53.426;10.300;2023-03-25T11:26:34;100061.84;;;12.16;100.00
63111;BME280;49201;53.426;10.300;2023-03-25T11:29:11;100161.75;;;11.65;100.00
63111;BME280;49201;53.426;10.300;2023-03-25T11:31:40;100224.72;;;11.21;100.00
63111;BME280;49201;53.426;10.300;2023-03-25T11:39:39;100063.59;;;10.31;100.00
63111;BME280;49201;53.426;10.300;2023-03-25T11:44:48;100062.59;;;10.14;100.00
63111;BME280;49201;53.426;10.300;2023-03-25T11:47:24;100065.03;;;10.02;100.00
63111;BME280;49201;53.426;10.300;2023-03-25T11:49:51;100080.31;;;9.96;100.00
63111;BME280;49201;53.426;10.300;2023-03-25T11:52:20;100085.34;;;9.89;100.00
63111;BME280;49201;53.426;10.300;2023-03-25T11:54:48;100084.13;;;9.52;100.00
63111;BME280;49201;53.426;10.300;2023-03-25T11:57:17;100088.25;;;9.41;100.00
63111;BME280;49201;53.426;10.300;2023-03-25T11:59:46;100076.34;;;9.43;100.00
63111;BME280;49201;53.426;10.300;2023-03-25T12:02:36;100051.59;;;9.38;100.00
63111;BME280;49201;53.426;10.300;2023-03-25T12:05:13;100061.09;;;10.39;100.00
63111;BME280;49201;53.426;10.300;2023-03-25T12:10:44;100042.81;;;9.97;100.00
63111;BME280;49201;53.426;10.300;2023-03-25T12:34:38;100015.03;;;10.40;100.00
63111;BME280;49201;53.426;10.300;2023-03-25T12:40:25;100007.84;;;11.50;100.00
63111;BME280;49201;53.426;10.300;2023-03-25T12:43:05;100000.97;;;11.46;100.00
63111;BME280;49201;53.426;10.300;2023-03-25T12:46:11;99993.97;;;10.91;100.00
63111;BME280;49201;53.426;10.300;2023-03-25T12:49:07;99996.50;;;10.80;100.00
63111;BME280;49201;53.426;10.300;2023-03-25T12:56:59;99999.59;;;10.25;100.00
63111;BME280;49201;53.426;10.300;2023-03-25T13:07:37;100004.44;;;9.92;100.00
63111;BME280;49201;53.426;10.300;2023-03-25T13:10:17;100004.19;;;9.68;100.00
63111;BME280;49201;53.426;10.300;2023-03-25T13:12:51;99997.44;;;9.72;100.00
63111;BME280;49201;53.426;10.300;2023-03-25T13:18:10;100002.03;;;10.09;100.00
63111;BME280;49201;53.426;10.300;2023-03-25T13:20:42;99995.22;;;10.12;100.00
63111;BME280;49201;53.426;10.300;2023-03-25T13:23:13;99997.81;;;10.17;100.00
63111;BME280;49201;53.426;10.300;2023-03-25T13:25:54;99990.84;;;10.01;100.00
63111;BME280;49201;53.426;10.300;2023-03-25T13:31:20;99987.28;;;9.79;100.00
63111;BME280;49201;53.426;10.300;2023-03-25T13:33:51;99988.19;;;9.90;100.00
63111;BME280;49201;53.426;10.300;2023-03-25T13:36:30;99980.78;;;10.19;100.00
63111;BME280;49201;53.426;10.300;2023-03-25T13:39:42;99980.19;;;10.63;100.00
63111;BME280;49201;53.426;10.300;2023-03-25T13:41:55;99988.00;;;10.87;100.00
63111;BME280;49201;53.426;10.300;2023-03-25T13:44:33;99973.63;;;11.31;100.00
63111;BME280;49201;53.426;10.300;2023-03-25T13:49:40;99977.94;;;11.43;100.00
63111;BME280;49201;53.426;10.300;2023-03-25T13:52:08;99976.22;;;11.54;100.00
63111;BME280;49201;53.426;10.300;2023-03-25T13:57:29;99979.38;;;10.73;100.00
63111;BME280;49201;53.426;10.300;2023-03-25T14:00:33;99976.69;;;10.48;100.00
63111;BME280;49201;53.426;10.300;2023-03-25T14:11:26;99975.16;;;10.78;100.00
63111;BME280;49201;53.426;10.300;2023-03-25T14:14:09;99975.22;;;10.90;100.00
63111;BME280;49201;53.426;10.300;2023-03-25T14:16:45;99983.72;;;10.80;100.00
63111;BME280;49201;53.426;10.300;2023-03-25T14:19:13;99980.28;;;10.75;100.00
63111;BME280;49201;53.426;10.300;2023-03-25T14:21:47;99984.53;;;10.81;100.00
63111;BME280;49201;53.426;10.300;2023-03-25T14:24:33;99975.16;;;10.78;100.00
63111;BME280;49201;53.426;10.300;2023-03-25T14:27:06;99977.69;;;10.77;100.00
63111;BME280;49201;53.426;10.300;2023-03-25T14:34:43;99977.69;;;10.78;100.00
63111;BME280;49201;53.426;10.300;2023-03-25T14:39:50;99970.78;;;10.59;100.00
63111;BME280;49201;53.426;10.300;2023-03-25T14:42:41;99988.66;;;10.52;100.00
63111;BME280;49201;53.426;10.300;2023-03-25T14:47:58;100000.66;;;10.56;100.00
63111;BME280;49201;53.426;10.300;2023-03-25T14:53:01;100014.59;;;9.86;100.00
63111;BME280;49201;53.426;10.300;2023-03-25T14:55:31;100011.78;;;9.58;100.00
63111;BME280;49201;53.426;10.300;2023-03-25T14:58:01;100016.63;;;9.34;100.00
63111;BME280;49201;53.426;10.300;2023-03-25T15:00:32;100009.78;;;9.31;100.00
63111;BME280;49201;53.426;10.300;2023-03-25T15:03:06;100015.66;;;9.23;100.00
63111;BME280;49201;53.426;10.300;2023-03-25T15:05:33;100024.91;;;9.15;100.00
63111;BME280;49201;53.426;10.300;2023-03-25T15:10:41;100014.34;;;8.85;100.00